LIPZLQMO

Guest
Details From LIPZ - Venezia Tessera
To LQMO - Mostar
Flight Number -
Tags Generated
Created
Modified
Stats Distance 274 nm / 508 km
Max Altitude 0 ft / 0 m
Waypoints 3
Social Downloads 0
Likes 0
Share VATSIM

Download

Looking for another format? Having issues loading an existing format? Contact us
Advertisement - Login to hide

Notes

Generated

Route

LIPZ MSR LQMO

ID Type Via Altitude Latitude Longitude Leg Dist Tot Dist Heading (true) Name
O LIPZ APT - 0 ft / 0 m 45.49516˚ 12.33556˚ - 0 nm - -
MSR VOR - 0 ft / 0 m 43.26136˚ 17.85573˚ 272 nm 272 nm 118° / 121° MOSTAR VOR-DME
O LQMO APT - 0 ft / 0 m 43.29287˚ 17.84029˚ 2 nm 274 nm 340° / 340° -

Altitude Profile

Advertisement - Login to hide

Weather


0- 5 10 15 20 25 30 35+ Temperature / ° C

Clouds and Precipitation
Forecast for 2018-05-24 18:00 UTC. Updated 3 hours ago

Ground ~20,000 ft ~40,000 ft Winds

LIPZ

Details ICAO LIPZ (VCE)
Name Venezia Tessera
Region Italy
Timezone Europe/Rome (UTC+2.0)
Stats Elevation 7 ft / 2 m (AMSL)
Location 45.504791° 12.349691°
Runways 2
Magnetic Variation 3.230° E

METAR

LIPZ 241950Z 03005KT CAVOK 20/16 Q1015 NOSIG

Decode

TAF

TAF AMD LIPZ 241820Z 2418/2524 03010KT 9999 FEW040 BECMG 2508/2510 16008KT

Decode

Departure Runways

ID Width Length Bearing (true) Bearing (mag) Surface Threshold Offset Overrun Length
04L 148 ft / 45 m 9,112 ft / 2,777 m 42.01° 38.78° Asphalt 312 ft / 95 m 0 ft / 0 m
04R 148 ft / 45 m 10,834 ft / 3,302 m 41.99° 38.76° Asphalt 0 ft / 0 m 0 ft / 0 m
22L 148 ft / 45 m 10,834 ft / 3,302 m 222.01° 218.78° Asphalt 0 ft / 0 m 0 ft / 0 m
22R 148 ft / 45 m 9,112 ft / 2,777 m 222.02° 218.79° Asphalt 0 ft / 0 m 0 ft / 0 m

LQMO

Details ICAO LQMO (OMO)
Name MOSTAR
Region Bosnia and Herzegovinia
Timezone Europe/Sarajevo (UTC+2.0)
Stats Elevation 156 ft / 48 m (AMSL)
Location 43.282916° 17.845865°
Runways 1
Magnetic Variation 4.138° E

METAR

LQMO 242000Z 17003KT 9999 FEW050 21/17 Q1013

Decode

TAF

Not found

Destination Runways

ID Width Length Bearing (true) Bearing (mag) Surface Threshold Offset Overrun Length
16 158 ft / 48 m 7,843 ft / 2,391 m 157.82° 153.68° Asphalt 0 ft / 0 m 0 ft / 0 m
34 158 ft / 48 m 7,843 ft / 2,391 m 337.83° 333.69° Asphalt 0 ft / 0 m 0 ft / 0 m

Popular Alternatives